CMA CGM Thalassa — 5BNE2 — position and weather

sailwx.info

Track history (hours):
 
Tides and Currents Weather Stations Pressure Air Temp Water Temp Dewpoint Dewpoint Depression Visibility Wind Speed Wind Dir Waves Ship Positions

CMA CGM Thalassa

Last reported at 2016-Feb-08 06:15 UTC. Time now 2016-Feb-08 19:01 UTC.
Position N 22°36' E 113°43'.

Length 347 m; draft 13.9 m.

Type: Ship (hazmat cat A). MMSI: 212151000.

Date/timePositionNaut miles runAvg speedWind from/ knotsBaromVisibWave heightAir tempDewpointWater temp
2016-Feb-08 06:15N 22°36' E 113°43'1013.8
2016-Feb-08 05:33N 22°26' E 113°45'1313.4
2016-Feb-08 04:33N 22°14' E 113°49'26815.7
2016-Feb-07 11:33N 23°55' E 118°18'1817.4
2016-Feb-07 10:31N 24°13' E 118°17'1414.3
2016-Feb-07 09:33N 24°23' E 118°07'7 7.0
2016-Feb-07 08:33N 24°27' E 118°00'0 0.1
2016-Feb-07 07:33N 24°27' E 118°00'0 0.0
2016-Feb-07 06:33N 24°27' E 118°00'0 0.0
2016-Feb-07 05:32N 24°27' E 118°00'0 0.0
2016-Feb-07 04:32N 24°27' E 118°00'0 0.0
2016-Feb-07 03:31N 24°27' E 118°00'0 0.0
2016-Feb-07 02:31N 24°27' E 118°00'0 0.0
2016-Feb-07 01:33N 24°27' E 118°00'0 0.0
2016-Feb-07 00:33N 24°27' E 118°00'0 0.0
2016-Feb-06 23:33N 24°27' E 118°00'0 0.0
2016-Feb-06 22:32N 24°27' E 118°00'0 0.0
2016-Feb-06 21:32N 24°27' E 118°00'0 0.0
2016-Feb-06 20:31N 24°27' E 118°00'0 0.0
2016-Feb-06 19:31N 24°27' E 118°00'0 0.0
2016-Feb-06 18:33N 24°27' E 118°00'0 0.0
2016-Feb-06 17:33N 24°27' E 118°00'0 0.0
2016-Feb-06 16:33N 24°27' E 118°00'0 0.0
2016-Feb-06 15:32N 24°27' E 118°00'0 0.0
2016-Feb-06 14:32N 24°27' E 118°00'0 0.0
2016-Feb-06 13:31N 24°27' E 118°00'0 0.0
2016-Feb-06 12:31N 24°27' E 118°00'0 0.0
2016-Feb-06 11:33N 24°27' E 118°00'0 0.1
2016-Feb-06 10:33N 24°27' E 118°00'9 9.1
2016-Feb-06 09:33N 24°22' E 118°09'1313.2
2016-Feb-06 08:33N 24°13' E 118°19'1715.0
2016-Feb-06 07:24N 24°09' E 118°38'3816.7
2016-Feb-06 05:07N 24°25' E 119°16'4718.6
2016-Feb-06 02:34N 25°07' E 119°42'1514.5
2016-Feb-06 01:33N 25°19' E 119°33'1312.6
2016-Feb-06 00:33N 25°23' E 119°20'3 3.3
2016-Feb-05 23:34N 25°25' E 119°17'0 0.0
2016-Feb-05 22:21N 25°25' E 119°17'0 0.0
2016-Feb-05 21:26N 25°25' E 119°17'0 0.0
2016-Feb-05 20:32N 25°25' E 119°17'0 0.0
2016-Feb-05 18:07N 25°25' E 119°17'0 0.0
2016-Feb-05 17:25N 25°25' E 119°17'0 0.0
2016-Feb-05 16:30N 25°25' E 119°17'0 0.0
2016-Feb-05 15:06N 25°25' E 119°17'0 0.0
2016-Feb-05 14:29N 25°25' E 119°17'0 0.0
2016-Feb-05 13:29N 25°25' E 119°17'0 0.0
2016-Feb-05 12:23N 25°25' E 119°17'0 0.0
2016-Feb-05 11:10N 25°25' E 119°17'0 0.0
2016-Feb-05 10:28N 25°25' E 119°17'0 0.0
2016-Feb-05 09:33N 25°25' E 119°17'1 1.1
2016-Feb-05 08:33N 25°24' E 119°17'1111.2
2016-Feb-05 07:33N 25°19' E 119°28'9 9.0
2016-Feb-05 06:33N 25°17' E 119°38'  
Track history (hours):
 
Tides and Currents Weather Stations Pressure Air Temp Water Temp Dewpoint Dewpoint Depression Visibility Wind Speed Wind Dir Waves Ship Positions

CMA CGM Thalassa

Last reported at 2016-Feb-08 06:15 UTC. Time now 2016-Feb-08 19:01 UTC.
Position N 22°36' E 113°43'.

Length 347 m; draft 13.9 m.

Type: Ship (hazmat cat A). MMSI: 212151000.

Date/timePositionNaut miles runAvg speedWind from/ knotsBaromVisibWave heightAir tempDewpointWater temp
2016-Feb-08 06:15N 22°36' E 113°43'1013.8
2016-Feb-08 05:33N 22°26' E 113°45'1313.4
2016-Feb-08 04:33N 22°14' E 113°49'26815.7
2016-Feb-07 11:33N 23°55' E 118°18'1817.4
2016-Feb-07 10:31N 24°13' E 118°17'1414.3
2016-Feb-07 09:33N 24°23' E 118°07'7 7.0
2016-Feb-07 08:33N 24°27' E 118°00'0 0.1
2016-Feb-07 07:33N 24°27' E 118°00'0 0.0
2016-Feb-07 06:33N 24°27' E 118°00'0 0.0
2016-Feb-07 05:32N 24°27' E 118°00'0 0.0
2016-Feb-07 04:32N 24°27' E 118°00'0 0.0
2016-Feb-07 03:31N 24°27' E 118°00'0 0.0
2016-Feb-07 02:31N 24°27' E 118°00'0 0.0
2016-Feb-07 01:33N 24°27' E 118°00'0 0.0
2016-Feb-07 00:33N 24°27' E 118°00'0 0.0
2016-Feb-06 23:33N 24°27' E 118°00'0 0.0
2016-Feb-06 22:32N 24°27' E 118°00'0 0.0
2016-Feb-06 21:32N 24°27' E 118°00'0 0.0
2016-Feb-06 20:31N 24°27' E 118°00'0 0.0
2016-Feb-06 19:31N 24°27' E 118°00'0 0.0
2016-Feb-06 18:33N 24°27' E 118°00'0 0.0
2016-Feb-06 17:33N 24°27' E 118°00'0 0.0
2016-Feb-06 16:33N 24°27' E 118°00'0 0.0
2016-Feb-06 15:32N 24°27' E 118°00'0 0.0
2016-Feb-06 14:32N 24°27' E 118°00'0 0.0
2016-Feb-06 13:31N 24°27' E 118°00'0 0.0
2016-Feb-06 12:31N 24°27' E 118°00'0 0.0
2016-Feb-06 11:33N 24°27' E 118°00'0 0.1
2016-Feb-06 10:33N 24°27' E 118°00'9 9.1
2016-Feb-06 09:33N 24°22' E 118°09'1313.2
2016-Feb-06 08:33N 24°13' E 118°19'1715.0
2016-Feb-06 07:24N 24°09' E 118°38'3816.7
2016-Feb-06 05:07N 24°25' E 119°16'4718.6
2016-Feb-06 02:34N 25°07' E 119°42'1514.5
2016-Feb-06 01:33N 25°19' E 119°33'1312.6
2016-Feb-06 00:33N 25°23' E 119°20'3 3.3
2016-Feb-05 23:34N 25°25' E 119°17'0 0.0
2016-Feb-05 22:21N 25°25' E 119°17'0 0.0
2016-Feb-05 21:26N 25°25' E 119°17'0 0.0
2016-Feb-05 20:32N 25°25' E 119°17'0 0.0
2016-Feb-05 18:07N 25°25' E 119°17'0 0.0
2016-Feb-05 17:25N 25°25' E 119°17'0 0.0
2016-Feb-05 16:30N 25°25' E 119°17'0 0.0
2016-Feb-05 15:06N 25°25' E 119°17'0 0.0
2016-Feb-05 14:29N 25°25' E 119°17'0 0.0
2016-Feb-05 13:29N 25°25' E 119°17'0 0.0
2016-Feb-05 12:23N 25°25' E 119°17'0 0.0
2016-Feb-05 11:10N 25°25' E 119°17'0 0.0
2016-Feb-05 10:28N 25°25' E 119°17'0 0.0
2016-Feb-05 09:33N 25°25' E 119°17'1 1.1
2016-Feb-05 08:33N 25°24' E 119°17'1111.2
2016-Feb-05 07:33N 25°19' E 119°28'9 9.0
2016-Feb-05 06:33N 25°17' E 119°38'  

Dump ship's entire track history